Time;durP1;ratioP1;P1;durP2;ratioP2;P2;SDS_P1;SDS_P2;PMS_P1;PMS_P2;Temp;Humidity;BMP_temperature;BMP_pressure;BME280_temperature;BME280_humidity;BME280_pressure;Samples;Min_cycle;Max_cycle;Signal;HPM_P1;HPM_P2
2021/01/30 00:01:44;;;;;;;24.53;19.60;;;7.30;99.90;;;;;;6176310;22;20440;-82
2021/01/30 00:04:41;;;;;;;;;;;;;;;;;;;;;
2021/01/30 00:07:08;;;;;;;28.57;24.93;;;7.20;99.90;;;;;;6274895;22;20430;-82
2021/01/30 00:09:40;;;;;;;28.43;25.67;;;7.20;99.90;;;;;;6276961;22;20950;-81
2021/01/30 00:12:14;;;;;;;33.20;29.93;;;7.20;99.90;;;;;;6277392;22;20494;-82
2021/01/30 00:14:52;;;;;;;;;;;;;;;;;;;;;
2021/01/30 00:17:21;;;;;;;33.87;31.87;;;7.10;99.90;;;;;;6287099;22;20405;-81
2021/01/30 00:19:48;;;;;;;37.03;34.50;;;7.20;99.90;;;;;;6276998;22;20430;-81
2021/01/30 00:22:22;;;;;;;37.40;35.00;;;7.10;99.90;;;;;;6285395;22;20409;-82
2021/01/30 00:24:55;;;;;;;35.43;33.20;;;7.10;99.90;;;;;;6276678;22;20405;-81
2021/01/30 00:27:40;;;;;;;34.20;31.53;;;7.00;99.90;;;;;;6286763;22;20958;-82
2021/01/30 00:30:40;;;;;;;;;;;;;;;;;;;;;
2021/01/30 00:33:36;;;;;;;37.47;34.73;;;6.90;99.90;;;;;;6169162;22;20851;-82
2021/01/30 00:36:06;;;;;;;47.63;43.40;;;7.00;99.90;;;;;;6275925;22;20425;-81
2021/01/30 00:38:38;;;;;;;48.40;44.70;;;7.00;99.90;;;;;;6286710;22;20757;-82
2021/01/30 00:44:30;;;;;;;47.40;44.10;;;6.90;99.90;;;;;;6284076;22;20402;-82
2021/01/30 00:47:12;;;;;;;50.53;47.40;;;6.90;99.90;;;;;;6276793;22;20434;-82
2021/01/30 00:49:48;;;;;;;49.83;46.47;;;6.90;99.90;;;;;;6276595;22;20410;-81
2021/01/30 00:52:27;;;;;;;50.40;46.17;;;6.90;99.90;;;;;;6275012;22;20428;-82
2021/01/30 00:55:01;;;;;;;52.33;49.27;;;6.90;99.90;;;;;;6286980;22;20403;-82
2021/01/30 02:35:37;;;;;;;59.07;54.27;;;4.00;99.90;;;;;;5945194;23;20811;-83
2021/01/30 02:48:30;;;;;;;;;;;;;;;;;;;;;
2021/01/30 02:51:48;;;;;;;;;;;;;;;;;;;;;
2021/01/30 02:55:04;;;;;;;64.10;58.50;;;3.70;99.90;;;;;;6066313;23;20962;-83
2021/01/30 02:58:07;;;;;;;56.90;52.27;;;3.60;99.90;;;;;;6126410;23;20516;-82
2021/01/30 03:00:55;;;;;;;52.13;47.33;;;3.50;99.90;;;;;;5981337;24;20443;-82
2021/01/30 03:03:47;;;;;;;50.00;45.67;;;3.30;99.90;;;;;;5980963;24;20423;-83
2021/01/30 03:06:23;;;;;;;54.73;49.63;;;3.30;99.90;;;;;;5979751;24;20455;-82
2021/01/30 03:12:25;;;;;;;45.07;41.10;;;3.10;99.90;;;;;;5990448;24;20420;-82
2021/01/30 03:14:56;;;;;;;44.20;40.87;;;3.10;99.90;;;;;;6051554;23;20447;-81
2021/01/30 03:20:53;;;;;;;48.53;45.13;;;2.90;99.90;;;;;;6190815;23;20415;-82
2021/01/30 03:23:23;;;;;;;50.03;45.83;;;2.90;99.90;;;;;;6230579;23;20439;-82
2021/01/30 03:25:50;;;;;;;44.67;40.30;;;2.80;99.90;;;;;;6257094;23;20492;-82
2021/01/30 03:28:17;;;;;;;55.73;51.53;;;2.90;99.90;;;;;;6265824;22;20445;-82
2021/01/30 03:30:49;;;;;;;47.13;43.67;;;2.90;99.90;;;;;;6287353;22;20402;-82
2021/01/30 03:33:16;;;;;;;37.80;34.70;;;2.80;99.90;;;;;;6277312;22;20457;-82
2021/01/30 03:35:42;;;;;;;39.53;36.33;;;2.80;99.90;;;;;;6287480;22;20425;-81
2021/01/30 03:38:14;;;;;;;37.33;34.13;;;2.70;99.90;;;;;;6285871;22;20465;-82
2021/01/30 03:40:44;;;;;;;35.33;32.00;;;2.80;99.90;;;;;;6276997;22;20402;-81
2021/01/30 03:43:12;;;;;;;52.43;47.27;;;2.70;99.90;;;;;;6286993;22;20398;-81
2021/01/30 03:45:46;;;;;;;53.73;49.23;;;2.70;99.90;;;;;;6276939;22;20938;-82
2021/01/30 03:48:13;;;;;;;54.27;50.17;;;2.70;99.90;;;;;;6277441;22;20422;-81
2021/01/30 03:50:40;;;;;;;46.77;42.97;;;2.70;99.90;;;;;;6277012;22;20410;-81
2021/01/30 03:53:07;;;;;;;42.50;39.27;;;2.70;99.90;;;;;;6286087;22;20406;-80
2021/01/30 03:55:45;;;;;;;35.47;32.60;;;2.80;99.90;;;;;;6277045;22;20430;-81
2021/01/30 03:58:12;;;;;;;32.40;30.27;;;2.70;99.90;;;;;;6277207;22;20406;-81
2021/01/30 04:00:38;;;;;;;37.70;34.47;;;2.70;99.90;;;;;;6277134;22;20410;-81
2021/01/30 04:03:04;;;;;;;39.17;35.47;;;2.60;99.90;;;;;;6277411;22;20406;-81
2021/01/30 04:05:34;;;;;;;29.87;27.50;;;2.50;99.90;;;;;;6287468;22;20429;-82
2021/01/30 04:08:03;;;;;;;31.23;28.87;;;2.50;99.90;;;;;;6275699;22;20445;-81
2021/01/30 04:10:33;;;;;;;36.77;33.63;;;2.60;99.90;;;;;;6277205;22;20541;-81
2021/01/30 04:13:03;;;;;;;40.43;37.47;;;2.40;99.90;;;;;;6287358;22;20423;-81
2021/01/30 04:15:33;;;;;;;50.53;46.50;;;2.30;99.90;;;;;;6287547;22;20874;-82
2021/01/30 04:18:06;;;;;;;54.20;49.93;;;2.30;99.90;;;;;;6276982;22;20442;-82
2021/01/30 04:20:34;;;;;;;63.43;59.03;;;2.20;99.90;;;;;;6287023;22;20421;-81
2021/01/30 04:23:01;;;;;;;58.77;53.80;;;2.20;99.90;;;;;;6275809;22;20411;-82
2021/01/30 04:25:28;;;;;;;67.97;61.67;;;2.20;99.90;;;;;;6286718;22;20733;-81
2021/01/30 04:27:56;;;;;;;60.03;53.67;;;2.20;99.90;;;;;;6276507;22;20438;-81
2021/01/30 04:33:54;;;;;;;39.83;36.13;;;2.10;99.90;;;;;;6211311;22;20398;-81
2021/01/30 04:36:26;;;;;;;46.03;41.63;;;2.10;99.90;;;;;;6274982;22;20496;-81
2021/01/30 04:39:23;;;;;;;53.60;46.13;;;2.10;99.90;;;;;;6276483;22;20905;-81
2021/01/30 04:42:00;;;;;;;63.83;42.67;;;2.20;99.90;;;;;;6268655;22;20466;-82
2021/01/30 04:44:33;;;;;;;55.20;44.00;;;2.10;99.90;;;;;;6277003;22;20827;-81
2021/01/30 04:47:11;;;;;;;50.93;45.43;;;2.10;99.90;;;;;;6276830;22;20437;-81
2021/01/30 04:49:47;;;;;;;63.77;49.37;;;2.10;99.90;;;;;;6276264;22;20487;-81
2021/01/30 04:52:44;;;;;;;52.90;46.17;;;2.10;99.90;;;;;;6275154;22;20489;-82
2021/01/30 04:55:27;;;;;;;40.43;36.23;;;2.10;99.90;;;;;;6286364;22;20410;-80
2021/01/30 04:58:04;;;;;;;30.43;27.13;;;2.10;99.90;;;;;;6276923;22;20460;-81
2021/01/30 05:00:58;;;;;;;31.13;28.33;;;2.10;99.90;;;;;;6286983;22;20413;-82
2021/01/30 05:04:00;;;;;;;28.30;26.03;;;2.10;99.90;;;;;;6272193;22;20414;-81
2021/01/30 05:06:42;;;;;;;37.87;33.87;;;2.10;99.90;;;;;;6275288;22;20437;-81
2021/01/30 05:09:14;;;;;;;33.83;30.50;;;2.10;99.90;;;;;;6286918;22;20410;-82
2021/01/30 05:14:59;;;;;;;40.50;36.47;;;1.90;99.90;;;;;;6118556;23;20415;-81
2021/01/30 05:17:30;;;;;;;43.87;39.00;;;2.00;99.90;;;;;;6276382;22;20411;-81
2021/01/30 05:20:02;;;;;;;43.27;38.27;;;1.90;99.90;;;;;;6286617;22;20449;-81
2021/01/30 05:22:34;;;;;;;44.57;37.13;;;1.90;99.90;;;;;;6275155;22;20481;-81
2021/01/30 05:25:02;;;;;;;45.10;37.20;;;1.90;99.90;;;;;;6287107;22;20403;-81
2021/01/30 05:27:57;;;;;;;61.70;39.70;;;1.90;99.90;;;;;;6276304;22;20533;-81
2021/01/30 05:30:34;;;;;;;43.67;37.83;;;1.80;99.90;;;;;;6276410;22;20426;-82
2021/01/30 05:33:23;;;;;;;30.73;27.53;;;1.90;99.90;;;;;;6276530;22;20767;-81
2021/01/30 05:35:58;;;;;;;52.67;38.07;;;1.80;99.90;;;;;;6276283;22;20438;-81
2021/01/30 05:38:53;;;;;;;47.57;37.50;;;1.80;99.90;;;;;;6275121;22;20406;-81
2021/01/30 05:41:41;;;;;;;31.57;28.27;;;1.80;99.90;;;;;;6286961;22;20451;-80
2021/01/30 05:44:20;;;;;;;50.07;35.40;;;1.70;99.90;;;;;;6276472;22;20401;-81
2021/01/30 05:46:55;;;;;;;36.77;31.30;;;1.80;99.90;;;;;;6275789;22;20937;-81
2021/01/30 05:49:30;;;;;;;35.13;28.43;;;1.70;99.90;;;;;;6286550;22;20410;-80
2021/01/30 05:52:05;;;;;;;45.27;31.67;;;1.70;99.90;;;;;;6277911;22;20390;-81
2021/01/30 05:54:42;;;;;;;;;;;;;;;;;;;;;
2021/01/30 05:57:16;;;;;;;38.80;27.73;;;1.70;99.90;;;;;;6273185;22;20414;-81
2021/01/30 05:59:50;;;;;;;33.37;30.03;;;1.70;99.90;;;;;;6276482;22;20478;-81
2021/01/30 06:02:18;;;;;;;50.57;42.77;;;1.80;99.90;;;;;;6276136;22;20984;-80
2021/01/30 06:04:45;;;;;;;41.80;31.10;;;1.80;99.90;;;;;;6276978;22;20407;-81
2021/01/30 06:07:26;;;;;;;40.80;27.70;;;1.80;99.90;;;;;;6276944;22;20780;-82
2021/01/30 06:09:56;;;;;;;35.17;24.40;;;1.80;99.90;;;;;;6277879;22;20413;-76
2021/01/30 06:12:28;;;;;;;37.23;24.13;;;1.70;99.90;;;;;;6288404;22;20395;-81
2021/01/30 06:14:57;;;;;;;38.77;27.33;;;1.60;99.90;;;;;;6278453;22;20428;-81
2021/01/30 06:17:32;;;;;;;30.07;23.67;;;1.70;99.90;;;;;;6278273;22;20426;-82
2021/01/30 06:20:10;;;;;;;56.27;32.33;;;1.60;99.90;;;;;;6278360;22;20800;-81
2021/01/30 06:22:37;;;;;;;44.90;31.80;;;1.60;99.90;;;;;;6287098;22;20407;-80
2021/01/30 06:25:31;;;;;;;41.93;29.13;;;1.60;99.90;;;;;;6277767;22;20759;-82
2021/01/30 06:28:03;;;;;;;43.47;23.60;;;1.70;99.90;;;;;;6277955;22;20476;-82
2021/01/30 06:30:36;;;;;;;44.63;28.07;;;1.70;99.90;;;;;;6278005;22;20409;-82
2021/01/30 06:33:11;;;;;;;39.83;28.10;;;1.70;99.90;;;;;;6277919;22;20438;-82
2021/01/30 06:35:51;;;;;;;;;;;;;;;;;;;;;
2021/01/30 06:38:25;;;;;;;43.73;29.20;;;1.70;99.90;;;;;;6276094;22;20406;-82
2021/01/30 06:41:03;;;;;;;40.57;24.47;;;1.80;99.90;;;;;;6277596;22;20403;-81
2021/01/30 06:43:32;;;;;;;45.95;28.45;;;1.80;99.90;;;;;;6278093;22;20839;-82
2021/01/30 06:46:07;;;;;;;35.73;25.47;;;1.80;99.90;;;;;;6277693;22;20180;-81
2021/01/30 06:48:44;;;;;;;33.50;23.00;;;1.70;99.90;;;;;;6277965;22;20455;-82
2021/01/30 06:51:39;;;;;;;35.63;25.03;;;1.70;99.90;;;;;;6276596;22;20394;-82
2021/01/30 06:54:24;;;;;;;33.60;24.47;;;1.80;99.90;;;;;;6207983;22;20910;-82
2021/01/30 06:57:05;;;;;;;31.67;21.93;;;1.80;99.90;;;;;;6277669;22;20425;-81
2021/01/30 06:59:35;;;;;;;38.67;24.33;;;1.80;99.90;;;;;;6287938;22;20448;-81
2021/01/30 07:02:10;;;;;;;37.60;25.43;;;1.80;99.90;;;;;;6287436;22;20433;-80
2021/01/30 07:04:54;;;;;;;23.23;15.97;;;1.70;99.90;;;;;;6277949;22;20482;-80
2021/01/30 07:07:23;;;;;;;38.27;25.10;;;1.70;99.90;;;;;;6275762;22;20509;-80
2021/01/30 07:10:06;;;;;;;34.60;22.40;;;1.70;99.90;;;;;;6288265;22;20490;-80
2021/01/30 07:12:45;;;;;;;36.80;20.73;;;1.70;99.90;;;;;;6277925;22;20401;-80
2021/01/30 07:15:21;;;;;;;38.90;25.50;;;1.70;99.90;;;;;;6277588;22;20477;-80
2021/01/30 07:18:13;;;;;;;41.23;27.90;;;1.60;99.90;;;;;;6277222;22;20493;-80
2021/01/30 07:20:49;;;;;;;36.43;21.97;;;1.60;99.90;;;;;;6287405;22;20403;-80
2021/01/30 07:23:24;;;;;;;34.43;22.57;;;1.70;99.90;;;;;;6276305;22;20866;-80
2021/01/30 07:25:59;;;;;;;44.17;26.80;;;1.60;99.90;;;;;;6287650;22;20410;-80
2021/01/30 07:28:31;;;;;;;49.30;28.27;;;1.60;99.90;;;;;;6277225;22;20466;-80
2021/01/30 07:31:04;;;;;;;52.10;29.13;;;1.50;99.90;;;;;;6277488;22;20399;-79
2021/01/30 07:33:38;;;;;;;49.60;29.73;;;1.60;99.90;;;;;;6277734;22;20409;-80
2021/01/30 07:36:10;;;;;;;61.30;32.10;;;1.60;99.90;;;;;;6276852;22;20465;-80
2021/01/30 07:38:42;;;;;;;43.97;24.73;;;1.50;99.90;;;;;;6277393;22;20486;-80
2021/01/30 07:41:20;;;;;;;49.40;28.40;;;1.70;99.90;;;;;;6277104;22;20426;-80
2021/01/30 07:43:56;;;;;;;54.07;30.50;;;1.60;99.90;;;;;;6277559;22;20403;-80
2021/01/30 07:46:27;;;;;;;56.80;32.70;;;1.60;99.90;;;;;;6287334;22;20422;-80
2021/01/30 07:48:56;;;;;;;36.90;23.60;;;1.60;99.90;;;;;;6277521;22;20500;-80
2021/01/30 07:51:25;;;;;;;43.23;26.73;;;1.50;99.90;;;;;;6275696;22;20490;-79
2021/01/30 07:53:52;;;;;;;46.73;28.17;;;1.50;99.90;;;;;;6277350;22;20486;-80
2021/01/30 07:56:34;;;;;;;37.00;21.77;;;1.50;99.90;;;;;;6277392;22;20430;-79
2021/01/30 07:59:27;;;;;;;56.80;28.00;;;1.50;99.90;;;;;;6277046;22;20490;-79
2021/01/30 08:02:38;;;;;;;47.63;28.00;;;1.60;99.90;;;;;;6277378;22;20481;-80
2021/01/30 08:05:21;;;;;;;44.03;25.00;;;1.50;99.90;;;;;;6181779;22;20957;-79
2021/01/30 08:07:55;;;;;;;50.90;30.70;;;1.60;99.90;;;;;;6275380;22;20472;-80
2021/01/30 08:10:33;;;;;;;43.00;26.97;;;1.60;99.90;;;;;;6277170;22;20473;-79
2021/01/30 08:13:15;;;;;;;46.73;27.50;;;1.70;99.90;;;;;;6277292;22;20409;-80
2021/01/30 08:15:48;;;;;;;33.00;20.93;;;1.70;99.90;;;;;;6286995;22;20768;-80
2021/01/30 08:18:27;;;;;;;34.22;21.40;;;1.60;99.90;;;;;;6287556;22;20414;-79
2021/01/30 08:20:58;;;;;;;31.90;21.30;;;1.70;99.90;;;;;;6287284;22;20159;-80
2021/01/30 08:23:48;;;;;;;38.13;20.77;;;1.70;99.90;;;;;;6275922;22;20955;-81
2021/01/30 08:26:20;;;;;;;34.17;20.63;;;1.60;99.90;;;;;;6277023;22;20430;-79
2021/01/30 08:28:56;;;;;;;34.37;20.20;;;1.70;99.90;;;;;;6276201;22;20856;-78
2021/01/30 08:31:38;;;;;;;27.13;16.47;;;1.70;99.90;;;;;;6276739;22;20436;-80
2021/01/30 08:34:08;;;;;;;32.93;20.10;;;1.70;99.90;;;;;;6276477;22;20542;-80
2021/01/30 08:36:38;;;;;;;26.93;17.20;;;1.70;99.90;;;;;;6275594;22;20427;-79
2021/01/30 08:39:21;;;;;;;31.40;18.50;;;1.70;99.90;;;;;;6276763;22;20395;-80
2021/01/30 08:41:50;;;;;;;34.70;24.37;;;1.70;99.90;;;;;;6276573;22;20430;-80
2021/01/30 08:44:45;;;;;;;32.80;22.20;;;1.70;99.90;;;;;;6276718;22;20489;-81
2021/01/30 08:47:19;;;;;;;96.80;22.80;;;1.80;99.90;;;;;;6287202;22;20513;-82
2021/01/30 08:50:11;;;;;;;32.10;21.17;;;1.80;99.90;;;;;;6276814;22;20485;-81
2021/01/30 08:52:53;;;;;;;37.67;21.70;;;1.80;99.90;;;;;;6246290;22;20468;-81
2021/01/30 08:55:30;;;;;;;32.00;19.27;;;1.80;99.90;;;;;;6273004;22;20446;-75
2021/01/30 08:57:56;;;;;;;28.90;18.70;;;1.90;99.90;;;;;;6276718;22;20406;-81
2021/01/30 09:00:53;;;;;;;37.10;20.10;;;2.00;99.90;;;;;;6276813;22;20398;-82
2021/01/30 09:03:44;;;;;;;41.80;19.30;;;1.90;99.90;;;;;;6276673;22;20407;-81
2021/01/30 09:06:51;;;;;;;32.30;19.77;;;1.90;99.90;;;;;;6275198;22;20423;-80
2021/01/30 09:09:20;;;;;;;28.00;18.60;;;2.00;99.90;;;;;;6275886;22;20477;-81
2021/01/30 09:11:47;;;;;;;26.90;16.53;;;2.00;99.90;;;;;;6276378;22;20403;-80
2021/01/30 09:14:41;;;;;;;30.33;19.00;;;2.00;99.90;;;;;;6276702;22;20419;-80
2021/01/30 09:17:32;;;;;;;27.27;17.43;;;2.00;99.90;;;;;;6276416;22;20456;-80
2021/01/30 09:20:12;;;;;;;29.17;18.00;;;2.00;99.90;;;;;;6278950;22;20441;-80
2021/01/30 09:23:04;;;;;;;31.00;19.80;;;2.00;99.90;;;;;;6285694;22;20501;-83
2021/01/30 09:25:44;;;;;;;30.30;19.73;;;2.20;99.90;;;;;;6286520;22;20414;-82
2021/01/30 09:28:17;;;;;;;25.30;18.60;;;2.20;99.90;;;;;;6276013;22;20442;-82
2021/01/30 09:30:51;;;;;;;23.50;16.17;;;2.10;99.90;;;;;;6276372;22;20423;-81
2021/01/30 09:33:23;;;;;;;22.63;14.47;;;2.30;99.90;;;;;;6286882;22;20434;-82
2021/01/30 09:36:10;;;;;;;26.43;15.60;;;2.30;99.90;;;;;;6276608;22;20430;-81
2021/01/30 09:38:39;;;;;;;26.83;16.10;;;2.30;99.90;;;;;;6276461;22;20768;-82
2021/01/30 09:41:16;;;;;;;20.87;11.80;;;2.40;99.90;;;;;;6288245;22;20414;-82
2021/01/30 09:43:44;;;;;;;23.23;14.10;;;2.30;99.90;;;;;;6289029;22;20402;-81
2021/01/30 09:46:40;;;;;;;23.20;15.43;;;2.30;99.90;;;;;;6278507;22;20480;-81
2021/01/30 09:49:25;;;;;;;;;;;;;;;;;;;;;
2021/01/30 09:52:12;;;;;;;22.50;14.53;;;2.40;99.90;;;;;;6285570;22;20465;-81
2021/01/30 09:54:40;;;;;;;20.20;13.87;;;2.40;99.90;;;;;;6264165;22;20418;-82
2021/01/30 09:57:08;;;;;;;19.93;10.97;;;2.40;99.90;;;;;;6278342;22;20394;-81
2021/01/30 09:59:35;;;;;;;20.33;13.30;;;2.40;99.90;;;;;;6288553;22;20740;-81
2021/01/30 10:02:11;;;;;;;19.07;12.33;;;2.50;99.90;;;;;;6288906;22;20398;-82
2021/01/30 10:04:37;;;;;;;21.20;13.90;;;2.60;99.90;;;;;;6278444;22;20398;-81
2021/01/30 10:07:10;;;;;;;20.37;12.37;;;2.60;99.90;;;;;;6276938;22;20458;-80
2021/01/30 10:09:41;;;;;;;21.70;12.10;;;2.50;99.90;;;;;;6288593;22;20962;-81
2021/01/30 10:12:08;;;;;;;21.83;13.93;;;2.80;99.90;;;;;;6278466;22;20702;-80
2021/01/30 10:14:37;;;;;;;20.27;12.70;;;2.70;99.90;;;;;;6278386;22;20438;-82
2021/01/30 10:17:06;;;;;;;19.47;12.10;;;2.80;99.90;;;;;;6278455;22;20452;-81
2021/01/30 10:20:28;;;;;;;16.77;11.20;;;2.90;99.90;;;;;;6288289;22;20402;-84
2021/01/30 10:22:57;;;;;;;19.27;12.53;;;2.90;99.90;;;;;;6276944;22;20874;-81
2021/01/30 10:25:26;;;;;;;16.57;11.53;;;2.90;99.90;;;;;;6288675;22;20499;-81
2021/01/30 10:28:04;;;;;;;14.93;10.80;;;2.80;99.90;;;;;;6288195;22;20438;-82
2021/01/30 10:30:31;;;;;;;12.33;7.77;;;2.90;99.90;;;;;;6287952;22;20978;-82
2021/01/30 10:33:01;;;;;;;12.07;7.87;;;3.00;98.30;;;;;;6278034;22;20394;-80
2021/01/30 10:35:33;;;;;;;12.07;7.50;;;3.10;97.10;;;;;;6278002;22;20466;-80
2021/01/30 10:38:06;;;;;;;10.60;7.97;;;3.00;95.40;;;;;;6276779;22;20422;-80
2021/01/30 10:40:38;;;;;;;12.90;8.70;;;3.10;95.40;;;;;;6278008;22;20469;-80
2021/01/30 10:43:07;;;;;;;13.60;8.90;;;3.00;94.80;;;;;;6278224;22;20887;-80
2021/01/30 10:45:37;;;;;;;11.20;7.93;;;3.10;92.10;;;;;;6278038;22;20402;-80
2021/01/30 10:48:05;;;;;;;12.43;8.80;;;3.10;88.50;;;;;;6278094;22;20430;-79
2021/01/30 10:51:02;;;;;;;10.43;7.60;;;3.20;93.60;;;;;;6278039;22;20482;-82
2021/01/30 10:53:37;;;;;;;11.63;8.70;;;3.40;90.80;;;;;;6276081;22;20395;-79
2021/01/30 10:56:15;;;;;;;11.40;8.40;;;3.20;83.70;;;;;;6273666;22;20400;-79
2021/01/30 10:58:44;;;;;;;11.40;7.70;;;3.10;86.40;;;;;;6275503;22;20721;-80
2021/01/30 11:01:12;;;;;;;11.50;7.40;;;3.30;87.50;;;;;;6286189;22;20398;-80
2021/01/30 11:03:47;;;;;;;13.00;7.60;;;3.20;85.20;;;;;;6274987;22;20407;-79
2021/01/30 11:06:40;;;;;;;;;;;;;;;;;;;;;
2021/01/30 11:09:22;;;;;;;10.40;6.73;;;3.30;86.30;;;;;;6283467;22;20403;-80
2021/01/30 11:11:50;;;;;;;12.37;8.63;;;3.30;84.20;;;;;;6275617;22;20399;-82
2021/01/30 11:23:59;;;;;;;11.40;8.50;;;3.30;90.10;;;;;;5896377;24;20418;-81
2021/01/30 11:27:00;;;;;;;13.10;7.90;;;3.30;83.80;;;;;;6065977;23;20430;-81
2021/01/30 11:29:57;;;;;;;;;;;;;;;;;;;;;
2021/01/30 11:32:34;;;;;;;;;;;;;;;;;;;;;
2021/01/30 11:35:01;;;;;;;12.23;8.00;;;3.50;83.50;;;;;;6271001;22;20422;-80
2021/01/30 11:37:29;;;;;;;11.77;8.17;;;3.70;82.10;;;;;;6282906;22;20443;-81
2021/01/30 11:39:58;;;;;;;9.97;7.50;;;3.80;83.20;;;;;;6274851;22;20427;-81
2021/01/30 11:42:25;;;;;;;10.17;7.80;;;3.60;75.50;;;;;;6284936;22;20419;-81
2021/01/30 11:44:52;;;;;;;11.57;8.17;;;3.80;77.80;;;;;;6284745;22;21017;-81
2021/01/30 11:47:20;;;;;;;12.30;8.97;;;3.80;72.70;;;;;;6275613;22;20430;-81
2021/01/30 11:50:10;;;;;;;11.00;7.20;;;3.90;76.90;;;;;;6274945;22;20403;-81
2021/01/30 11:59:31;;;;;;;12.17;9.00;;;4.00;74.90;;;;;;6220745;22;20414;-82
2021/01/30 12:06:10;;;;;;;;;;;;;;;;;;;;;
2021/01/30 12:09:35;;;;;;;;;;;;;;;;;;;;;
2021/01/30 12:12:35;;;;;;;;;;;;;;;;;;;;;
2021/01/30 13:56:33;;;;;;;8.80;5.53;;;4.30;65.70;;;;;;5850500;24;20429;-84
2021/01/30 16:04:42;;;;;;;40.53;22.63;;;3.40;60.50;;;;;;5974050;24;20178;-82
2021/01/30 16:17:23;;;;;;;7.23;5.53;;;3.40;56.30;;;;;;6078655;23;20430;-82
2021/01/30 21:12:23;;;;;;;8.30;5.03;;;1.90;94.90;;;;;;5987601;23;20437;-83
2021/01/30 22:56:57;;;;;;;;;;;;;;;;;;;;;
